sensor_id;sensor_type;location;lat;lon;timestamp;P1;durP1;ratioP1;P2;durP2;ratioP2
32633;SDS011;19043;51.012;5.648;2023-07-31T00:00:51;9.07;;;4.78;;
32633;SDS011;19043;51.012;5.648;2023-07-31T00:03:16;13.55;;;5.47;;
32633;SDS011;19043;51.012;5.648;2023-07-31T00:05:41;10.65;;;5.07;;
32633;SDS011;19043;51.012;5.648;2023-07-31T00:08:06;11.07;;;5.13;;
32633;SDS011;19043;51.012;5.648;2023-07-31T00:10:31;13.43;;;4.83;;
32633;SDS011;19043;51.012;5.648;2023-07-31T00:12:58;11.07;;;4.90;;
32633;SDS011;19043;51.012;5.648;2023-07-31T00:15:23;10.50;;;5.00;;
32633;SDS011;19043;51.012;5.648;2023-07-31T00:17:49;10.00;;;5.30;;
32633;SDS011;19043;51.012;5.648;2023-07-31T00:20:14;9.87;;;4.87;;
32633;SDS011;19043;51.012;5.648;2023-07-31T00:22:39;9.93;;;5.20;;
32633;SDS011;19043;51.012;5.648;2023-07-31T00:25:05;12.07;;;5.32;;
32633;SDS011;19043;51.012;5.648;2023-07-31T00:27:31;14.23;;;4.88;;
32633;SDS011;19043;51.012;5.648;2023-07-31T00:29:56;10.73;;;4.97;;
32633;SDS011;19043;51.012;5.648;2023-07-31T00:32:22;10.07;;;4.97;;
32633;SDS011;19043;51.012;5.648;2023-07-31T00:34:47;9.45;;;4.45;;
32633;SDS011;19043;51.012;5.648;2023-07-31T00:37:12;13.45;;;5.45;;
32633;SDS011;19043;51.012;5.648;2023-07-31T00:39:37;13.80;;;5.03;;
32633;SDS011;19043;51.012;5.648;2023-07-31T00:42:03;11.68;;;4.80;;
32633;SDS011;19043;51.012;5.648;2023-07-31T00:44:28;12.32;;;5.43;;
32633;SDS011;19043;51.012;5.648;2023-07-31T00:46:53;12.00;;;5.30;;
32633;SDS011;19043;51.012;5.648;2023-07-31T00:49:19;11.48;;;5.07;;
32633;SDS011;19043;51.012;5.648;2023-07-31T00:51:45;11.65;;;5.18;;
32633;SDS011;19043;51.012;5.648;2023-07-31T00:54:10;12.77;;;5.20;;
32633;SDS011;19043;51.012;5.648;2023-07-31T00:56:35;15.55;;;5.15;;
32633;SDS011;19043;51.012;5.648;2023-07-31T00:59:01;11.07;;;4.90;;
32633;SDS011;19043;51.012;5.648;2023-07-31T01:01:27;11.60;;;5.43;;
32633;SDS011;19043;51.012;5.648;2023-07-31T01:03:52;13.75;;;5.22;;
32633;SDS011;19043;51.012;5.648;2023-07-31T01:06:25;19.98;;;5.95;;
32633;SDS011;19043;51.012;5.648;2023-07-31T01:08:54;12.13;;;5.55;;
32633;SDS011;19043;51.012;5.648;2023-07-31T01:11:22;10.75;;;5.07;;
32633;SDS011;19043;51.012;5.648;2023-07-31T01:13:50;10.85;;;5.43;;
32633;SDS011;19043;51.012;5.648;2023-07-31T01:16:16;14.60;;;5.50;;
32633;SDS011;19043;51.012;5.648;2023-07-31T01:18:41;8.90;;;4.78;;
32633;SDS011;19043;51.012;5.648;2023-07-31T01:21:12;11.40;;;6.15;;
32633;SDS011;19043;51.012;5.648;2023-07-31T01:26:12;11.52;;;5.28;;
32633;SDS011;19043;51.012;5.648;2023-07-31T01:29:00;9.40;;;5.72;;
32633;SDS011;19043;51.012;5.648;2023-07-31T01:31:26;10.82;;;5.40;;
32633;SDS011;19043;51.012;5.648;2023-07-31T01:33:54;10.70;;;5.43;;
32633;SDS011;19043;51.012;5.648;2023-07-31T01:36:19;9.98;;;5.32;;
32633;SDS011;19043;51.012;5.648;2023-07-31T01:38:45;10.80;;;5.07;;
32633;SDS011;19043;51.012;5.648;2023-07-31T01:41:10;10.43;;;4.97;;
32633;SDS011;19043;51.012;5.648;2023-07-31T01:43:35;9.93;;;5.13;;
32633;SDS011;19043;51.012;5.648;2023-07-31T01:46:00;10.27;;;5.07;;
32633;SDS011;19043;51.012;5.648;2023-07-31T01:48:26;8.30;;;4.50;;
32633;SDS011;19043;51.012;5.648;2023-07-31T01:50:51;10.45;;;5.15;;
32633;SDS011;19043;51.012;5.648;2023-07-31T01:53:16;10.57;;;5.03;;
32633;SDS011;19043;51.012;5.648;2023-07-31T01:55:42;11.97;;;5.60;;
32633;SDS011;19043;51.012;5.648;2023-07-31T01:58:07;10.10;;;5.07;;
32633;SDS011;19043;51.012;5.648;2023-07-31T02:00:32;8.47;;;5.20;;
32633;SDS011;19043;51.012;5.648;2023-07-31T02:02:58;9.97;;;4.90;;
32633;SDS011;19043;51.012;5.648;2023-07-31T02:05:24;8.20;;;4.97;;
32633;SDS011;19043;51.012;5.648;2023-07-31T02:07:49;10.10;;;5.73;;
32633;SDS011;19043;51.012;5.648;2023-07-31T02:10:14;11.93;;;5.45;;
32633;SDS011;19043;51.012;5.648;2023-07-31T02:12:40;14.18;;;5.20;;
32633;SDS011;19043;51.012;5.648;2023-07-31T02:15:05;10.02;;;5.40;;
32633;SDS011;19043;51.012;5.648;2023-07-31T02:17:30;7.63;;;4.20;;
32633;SDS011;19043;51.012;5.648;2023-07-31T02:19:56;14.10;;;5.88;;
32633;SDS011;19043;51.012;5.648;2023-07-31T02:22:21;9.23;;;5.35;;
32633;SDS011;19043;51.012;5.648;2023-07-31T02:24:46;8.38;;;4.68;;
32633;SDS011;19043;51.012;5.648;2023-07-31T02:27:11;12.07;;;5.60;;
32633;SDS011;19043;51.012;5.648;2023-07-31T02:29:37;11.00;;;5.68;;
32633;SDS011;19043;51.012;5.648;2023-07-31T02:32:02;13.15;;;5.25;;
32633;SDS011;19043;51.012;5.648;2023-07-31T02:34:27;8.70;;;5.05;;
32633;SDS011;19043;51.012;5.648;2023-07-31T02:36:53;9.20;;;5.40;;
32633;SDS011;19043;51.012;5.648;2023-07-31T02:39:18;11.80;;;5.63;;
32633;SDS011;19043;51.012;5.648;2023-07-31T02:41:43;10.83;;;5.87;;
32633;SDS011;19043;51.012;5.648;2023-07-31T02:44:08;11.55;;;5.93;;
32633;SDS011;19043;51.012;5.648;2023-07-31T02:46:35;9.38;;;5.50;;
32633;SDS011;19043;51.012;5.648;2023-07-31T02:49:00;10.13;;;5.78;;
32633;SDS011;19043;51.012;5.648;2023-07-31T02:51:25;9.10;;;4.97;;
32633;SDS011;19043;51.012;5.648;2023-07-31T02:53:51;12.23;;;5.90;;
32633;SDS011;19043;51.012;5.648;2023-07-31T02:56:16;9.00;;;5.53;;
32633;SDS011;19043;51.012;5.648;2023-07-31T02:58:41;10.67;;;5.67;;
32633;SDS011;19043;51.012;5.648;2023-07-31T03:01:07;8.63;;;5.53;;
32633;SDS011;19043;51.012;5.648;2023-07-31T03:03:32;10.70;;;5.37;;
32633;SDS011;19043;51.012;5.648;2023-07-31T03:05:57;7.27;;;4.97;;
32633;SDS011;19043;51.012;5.648;2023-07-31T03:08:22;10.43;;;5.80;;
32633;SDS011;19043;51.012;5.648;2023-07-31T03:10:48;12.93;;;5.53;;
32633;SDS011;19043;51.012;5.648;2023-07-31T03:13:13;9.90;;;5.87;;
32633;SDS011;19043;51.012;5.648;2023-07-31T03:15:38;8.80;;;5.40;;
32633;SDS011;19043;51.012;5.648;2023-07-31T03:18:06;10.25;;;5.35;;
32633;SDS011;19043;51.012;5.648;2023-07-31T03:20:31;11.30;;;5.67;;
32633;SDS011;19043;51.012;5.648;2023-07-31T03:22:57;10.60;;;5.50;;
32633;SDS011;19043;51.012;5.648;2023-07-31T03:25:22;13.75;;;5.85;;
32633;SDS011;19043;51.012;5.648;2023-07-31T03:27:47;10.50;;;5.90;;
32633;SDS011;19043;51.012;5.648;2023-07-31T03:30:13;9.03;;;6.17;;
32633;SDS011;19043;51.012;5.648;2023-07-31T03:32:38;11.32;;;5.32;;
32633;SDS011;19043;51.012;5.648;2023-07-31T03:35:03;7.20;;;4.88;;
32633;SDS011;19043;51.012;5.648;2023-07-31T03:37:30;8.85;;;4.97;;
32633;SDS011;19043;51.012;5.648;2023-07-31T03:39:55;10.73;;;5.20;;
32633;SDS011;19043;51.012;5.648;2023-07-31T03:42:21;10.98;;;5.43;;
32633;SDS011;19043;51.012;5.648;2023-07-31T03:44:46;9.30;;;5.63;;
32633;SDS011;19043;51.012;5.648;2023-07-31T03:47:11;10.43;;;6.03;;
32633;SDS011;19043;51.012;5.648;2023-07-31T03:49:36;7.97;;;5.72;;
32633;SDS011;19043;51.012;5.648;2023-07-31T03:52:02;9.20;;;5.67;;
32633;SDS011;19043;51.012;5.648;2023-07-31T03:54:27;9.15;;;6.07;;
32633;SDS011;19043;51.012;5.648;2023-07-31T03:56:52;8.60;;;6.20;;
32633;SDS011;19043;51.012;5.648;2023-07-31T03:59:17;13.50;;;6.30;;
32633;SDS011;19043;51.012;5.648;2023-07-31T04:01:42;8.33;;;6.07;;
32633;SDS011;19043;51.012;5.648;2023-07-31T04:04:08;9.32;;;5.93;;
32633;SDS011;19043;51.012;5.648;2023-07-31T04:06:33;10.90;;;5.50;;
32633;SDS011;19043;51.012;5.648;2023-07-31T04:08:58;8.10;;;5.37;;
32633;SDS011;19043;51.012;5.648;2023-07-31T04:11:23;8.00;;;4.63;;
32633;SDS011;19043;51.012;5.648;2023-07-31T04:13:49;9.13;;;4.85;;
32633;SDS011;19043;51.012;5.648;2023-07-31T04:16:14;8.53;;;5.47;;
32633;SDS011;19043;51.012;5.648;2023-07-31T04:18:39;10.55;;;5.38;;
32633;SDS011;19043;51.012;5.648;2023-07-31T04:21:04;8.47;;;4.83;;
32633;SDS011;19043;51.012;5.648;2023-07-31T04:23:29;6.63;;;4.90;;
32633;SDS011;19043;51.012;5.648;2023-07-31T04:25:55;6.27;;;5.30;;
32633;SDS011;19043;51.012;5.648;2023-07-31T04:28:20;6.70;;;4.88;;
32633;SDS011;19043;51.012;5.648;2023-07-31T04:30:45;6.87;;;4.87;;
32633;SDS011;19043;51.012;5.648;2023-07-31T04:33:11;7.43;;;4.50;;
32633;SDS011;19043;51.012;5.648;2023-07-31T04:35:36;8.05;;;4.80;;
32633;SDS011;19043;51.012;5.648;2023-07-31T04:38:01;6.03;;;4.47;;
32633;SDS011;19043;51.012;5.648;2023-07-31T04:40:26;9.27;;;4.30;;
32633;SDS011;19043;51.012;5.648;2023-07-31T04:42:52;8.27;;;5.07;;
32633;SDS011;19043;51.012;5.648;2023-07-31T04:45:17;7.63;;;4.03;;
32633;SDS011;19043;51.012;5.648;2023-07-31T04:47:42;11.60;;;4.00;;
32633;SDS011;19043;51.012;5.648;2023-07-31T04:50:07;10.07;;;4.60;;
32633;SDS011;19043;51.012;5.648;2023-07-31T04:52:33;7.50;;;4.35;;
32633;SDS011;19043;51.012;5.648;2023-07-31T04:54:58;7.15;;;4.90;;
32633;SDS011;19043;51.012;5.648;2023-07-31T04:57:23;8.80;;;5.07;;
32633;SDS011;19043;51.012;5.648;2023-07-31T04:59:49;7.60;;;4.33;;
32633;SDS011;19043;51.012;5.648;2023-07-31T05:02:14;8.57;;;4.87;;
32633;SDS011;19043;51.012;5.648;2023-07-31T05:04:39;6.13;;;4.27;;
32633;SDS011;19043;51.012;5.648;2023-07-31T05:07:04;8.23;;;4.40;;
32633;SDS011;19043;51.012;5.648;2023-07-31T05:09:30;7.85;;;5.38;;
32633;SDS011;19043;51.012;5.648;2023-07-31T05:11:55;8.27;;;5.22;;
32633;SDS011;19043;51.012;5.648;2023-07-31T05:14:20;7.30;;;4.50;;
32633;SDS011;19043;51.012;5.648;2023-07-31T05:16:45;8.27;;;5.18;;
32633;SDS011;19043;51.012;5.648;2023-07-31T05:19:11;9.93;;;5.93;;
32633;SDS011;19043;51.012;5.648;2023-07-31T05:21:36;6.20;;;5.10;;
32633;SDS011;19043;51.012;5.648;2023-07-31T05:24:01;8.00;;;5.40;;
32633;SDS011;19043;51.012;5.648;2023-07-31T05:26:27;7.18;;;4.93;;
32633;SDS011;19043;51.012;5.648;2023-07-31T05:28:52;10.90;;;6.60;;
32633;SDS011;19043;51.012;5.648;2023-07-31T05:31:17;7.85;;;5.72;;
32633;SDS011;19043;51.012;5.648;2023-07-31T05:33:42;8.77;;;5.43;;
32633;SDS011;19043;51.012;5.648;2023-07-31T05:36:08;8.35;;;5.88;;
32633;SDS011;19043;51.012;5.648;2023-07-31T05:38:34;12.15;;;4.90;;
32633;SDS011;19043;51.012;5.648;2023-07-31T05:40:59;8.90;;;5.80;;
32633;SDS011;19043;51.012;5.648;2023-07-31T05:43:24;9.03;;;5.47;;
32633;SDS011;19043;51.012;5.648;2023-07-31T05:45:50;15.67;;;5.67;;
32633;SDS011;19043;51.012;5.648;2023-07-31T05:48:16;9.93;;;5.80;;
32633;SDS011;19043;51.012;5.648;2023-07-31T05:50:41;9.07;;;6.10;;
32633;SDS011;19043;51.012;5.648;2023-07-31T05:53:07;9.25;;;5.95;;
32633;SDS011;19043;51.012;5.648;2023-07-31T05:55:33;8.48;;;5.20;;
32633;SDS011;19043;51.012;5.648;2023-07-31T05:57:58;9.60;;;5.97;;
32633;SDS011;19043;51.012;5.648;2023-07-31T06:00:24;9.63;;;5.80;;
32633;SDS011;19043;51.012;5.648;2023-07-31T06:02:49;9.30;;;5.43;;
32633;SDS011;19043;51.012;5.648;2023-07-31T06:05:14;8.88;;;4.82;;
32633;SDS011;19043;51.012;5.648;2023-07-31T06:07:40;12.43;;;5.32;;
32633;SDS011;19043;51.012;5.648;2023-07-31T06:10:05;8.27;;;5.15;;
32633;SDS011;19043;51.012;5.648;2023-07-31T06:12:31;9.40;;;5.00;;
32633;SDS011;19043;51.012;5.648;2023-07-31T06:14:56;8.95;;;5.15;;
32633;SDS011;19043;51.012;5.648;2023-07-31T06:17:22;10.70;;;5.43;;
32633;SDS011;19043;51.012;5.648;2023-07-31T06:19:47;9.65;;;5.30;;
32633;SDS011;19043;51.012;5.648;2023-07-31T06:22:12;10.40;;;5.07;;
32633;SDS011;19043;51.012;5.648;2023-07-31T06:24:38;11.35;;;6.05;;
32633;SDS011;19043;51.012;5.648;2023-07-31T06:27:03;10.18;;;6.32;;
32633;SDS011;19043;51.012;5.648;2023-07-31T06:29:29;11.27;;;4.97;;
32633;SDS011;19043;51.012;5.648;2023-07-31T06:31:54;7.80;;;5.03;;
32633;SDS011;19043;51.012;5.648;2023-07-31T06:34:19;9.85;;;5.25;;
32633;SDS011;19043;51.012;5.648;2023-07-31T06:36:45;10.47;;;4.87;;
32633;SDS011;19043;51.012;5.648;2023-07-31T06:39:10;6.85;;;5.00;;
32633;SDS011;19043;51.012;5.648;2023-07-31T06:41:35;8.63;;;5.23;;
32633;SDS011;19043;51.012;5.648;2023-07-31T06:44:00;8.43;;;4.70;;
32633;SDS011;19043;51.012;5.648;2023-07-31T06:46:26;8.57;;;4.90;;
32633;SDS011;19043;51.012;5.648;2023-07-31T06:48:51;9.20;;;4.70;;
32633;SDS011;19043;51.012;5.648;2023-07-31T06:51:16;9.27;;;4.88;;
32633;SDS011;19043;51.012;5.648;2023-07-31T06:53:41;11.10;;;4.78;;
32633;SDS011;19043;51.012;5.648;2023-07-31T06:56:10;5.78;;;4.88;;
32633;SDS011;19043;51.012;5.648;2023-07-31T06:58:35;6.93;;;4.73;;
32633;SDS011;19043;51.012;5.648;2023-07-31T07:01:00;8.97;;;5.20;;
32633;SDS011;19043;51.012;5.648;2023-07-31T07:03:25;14.15;;;5.70;;
32633;SDS011;19043;51.012;5.648;2023-07-31T07:05:51;7.60;;;5.05;;
32633;SDS011;19043;51.012;5.648;2023-07-31T07:08:16;10.13;;;5.35;;
32633;SDS011;19043;51.012;5.648;2023-07-31T07:10:42;9.05;;;5.38;;
32633;SDS011;19043;51.012;5.648;2023-07-31T07:13:07;9.95;;;4.22;;
32633;SDS011;19043;51.012;5.648;2023-07-31T07:15:33;8.30;;;5.45;;
32633;SDS011;19043;51.012;5.648;2023-07-31T07:17:58;8.90;;;5.55;;
32633;SDS011;19043;51.012;5.648;2023-07-31T07:20:23;13.23;;;4.93;;
32633;SDS011;19043;51.012;5.648;2023-07-31T07:22:49;11.82;;;5.25;;
32633;SDS011;19043;51.012;5.648;2023-07-31T07:25:14;9.70;;;5.18;;
32633;SDS011;19043;51.012;5.648;2023-07-31T07:27:39;8.57;;;5.90;;
32633;SDS011;19043;51.012;5.648;2023-07-31T07:30:05;7.82;;;5.07;;
32633;SDS011;19043;51.012;5.648;2023-07-31T07:32:30;8.45;;;5.22;;
32633;SDS011;19043;51.012;5.648;2023-07-31T07:34:55;13.68;;;6.15;;
32633;SDS011;19043;51.012;5.648;2023-07-31T07:37:21;8.88;;;5.47;;
32633;SDS011;19043;51.012;5.648;2023-07-31T07:39:46;8.45;;;5.63;;
32633;SDS011;19043;51.012;5.648;2023-07-31T07:42:12;12.88;;;5.35;;
32633;SDS011;19043;51.012;5.648;2023-07-31T07:44:37;9.73;;;5.93;;
32633;SDS011;19043;51.012;5.648;2023-07-31T07:47:02;10.67;;;5.70;;
32633;SDS011;19043;51.012;5.648;2023-07-31T07:49:27;9.88;;;5.22;;
32633;SDS011;19043;51.012;5.648;2023-07-31T07:51:53;11.63;;;5.30;;
32633;SDS011;19043;51.012;5.648;2023-07-31T07:54:18;9.18;;;4.70;;
32633;SDS011;19043;51.012;5.648;2023-07-31T07:56:45;7.70;;;5.05;;
32633;SDS011;19043;51.012;5.648;2023-07-31T07:59:10;6.73;;;4.60;;
32633;SDS011;19043;51.012;5.648;2023-07-31T08:01:35;7.10;;;4.60;;
32633;SDS011;19043;51.012;5.648;2023-07-31T08:04:00;7.80;;;4.07;;
32633;SDS011;19043;51.012;5.648;2023-07-31T08:06:26;7.38;;;4.90;;
32633;SDS011;19043;51.012;5.648;2023-07-31T08:08:51;9.15;;;4.55;;
32633;SDS011;19043;51.012;5.648;2023-07-31T08:11:16;8.80;;;5.13;;
32633;SDS011;19043;51.012;5.648;2023-07-31T08:13:41;6.35;;;4.38;;
32633;SDS011;19043;51.012;5.648;2023-07-31T08:16:07;9.37;;;4.97;;
32633;SDS011;19043;51.012;5.648;2023-07-31T08:18:32;8.20;;;5.28;;
32633;SDS011;19043;51.012;5.648;2023-07-31T08:20:58;10.75;;;5.20;;
32633;SDS011;19043;51.012;5.648;2023-07-31T08:23:23;6.60;;;4.85;;
32633;SDS011;19043;51.012;5.648;2023-07-31T08:25:48;9.18;;;5.53;;
32633;SDS011;19043;51.012;5.648;2023-07-31T08:28:15;9.25;;;4.90;;
32633;SDS011;19043;51.012;5.648;2023-07-31T08:30:41;7.60;;;5.35;;
32633;SDS011;19043;51.012;5.648;2023-07-31T08:33:07;8.63;;;5.47;;
32633;SDS011;19043;51.012;5.648;2023-07-31T08:35:32;7.03;;;4.60;;
32633;SDS011;19043;51.012;5.648;2023-07-31T08:37:57;11.25;;;5.30;;
32633;SDS011;19043;51.012;5.648;2023-07-31T08:40:22;7.28;;;5.28;;
32633;SDS011;19043;51.012;5.648;2023-07-31T08:42:49;8.93;;;4.95;;
32633;SDS011;19043;51.012;5.648;2023-07-31T08:45:15;7.45;;;5.40;;
32633;SDS011;19043;51.012;5.648;2023-07-31T08:47:50;8.05;;;5.47;;
32633;SDS011;19043;51.012;5.648;2023-07-31T08:50:16;10.98;;;6.00;;
32633;SDS011;19043;51.012;5.648;2023-07-31T08:52:42;8.82;;;5.88;;
32633;SDS011;19043;51.012;5.648;2023-07-31T08:55:07;8.57;;;5.47;;
32633;SDS011;19043;51.012;5.648;2023-07-31T08:57:34;6.68;;;4.60;;
32633;SDS011;19043;51.012;5.648;2023-07-31T08:59:59;8.50;;;4.82;;
32633;SDS011;19043;51.012;5.648;2023-07-31T09:02:25;8.63;;;4.47;;
32633;SDS011;19043;51.012;5.648;2023-07-31T09:04:54;10.68;;;4.72;;
32633;SDS011;19043;51.012;5.648;2023-07-31T09:07:19;7.00;;;4.72;;
32633;SDS011;19043;51.012;5.648;2023-07-31T09:09:45;7.00;;;4.88;;
32633;SDS011;19043;51.012;5.648;2023-07-31T09:12:10;7.80;;;5.10;;
32633;SDS011;19043;51.012;5.648;2023-07-31T09:14:36;9.13;;;5.50;;
32633;SDS011;19043;51.012;5.648;2023-07-31T09:17:02;7.20;;;4.18;;
32633;SDS011;19043;51.012;5.648;2023-07-31T09:19:34;8.00;;;4.80;;
32633;SDS011;19043;51.012;5.648;2023-07-31T09:22:02;7.80;;;4.85;;
32633;SDS011;19043;51.012;5.648;2023-07-31T09:24:31;7.38;;;4.75;;
32633;SDS011;19043;51.012;5.648;2023-07-31T09:26:57;8.70;;;4.57;;
32633;SDS011;19043;51.012;5.648;2023-07-31T09:29:23;6.25;;;4.80;;
32633;SDS011;19043;51.012;5.648;2023-07-31T09:31:49;6.60;;;4.30;;
32633;SDS011;19043;51.012;5.648;2023-07-31T09:34:15;8.27;;;4.97;;
32633;SDS011;19043;51.012;5.648;2023-07-31T09:36:41;8.63;;;5.20;;
32633;SDS011;19043;51.012;5.648;2023-07-31T09:39:08;8.02;;;4.70;;
32633;SDS011;19043;51.012;5.648;2023-07-31T09:41:36;10.18;;;4.20;;
32633;SDS011;19043;51.012;5.648;2023-07-31T09:44:02;7.63;;;4.30;;
32633;SDS011;19043;51.012;5.648;2023-07-31T09:46:27;6.45;;;4.20;;
32633;SDS011;19043;51.012;5.648;2023-07-31T09:48:52;5.45;;;3.45;;
32633;SDS011;19043;51.012;5.648;2023-07-31T09:51:24;6.10;;;3.03;;
32633;SDS011;19043;51.012;5.648;2023-07-31T09:53:50;4.53;;;2.95;;
32633;SDS011;19043;51.012;5.648;2023-07-31T09:56:16;5.78;;;3.13;;
32633;SDS011;19043;51.012;5.648;2023-07-31T09:58:42;5.82;;;3.42;;
32633;SDS011;19043;51.012;5.648;2023-07-31T10:01:07;5.30;;;3.13;;
32633;SDS011;19043;51.012;5.648;2023-07-31T10:03:33;4.68;;;3.03;;
32633;SDS011;19043;51.012;5.648;2023-07-31T10:05:58;6.63;;;3.50;;
32633;SDS011;19043;51.012;5.648;2023-07-31T10:08:29;4.88;;;2.90;;
32633;SDS011;19043;51.012;5.648;2023-07-31T10:10:55;6.97;;;3.20;;
32633;SDS011;19043;51.012;5.648;2023-07-31T10:13:23;4.65;;;3.05;;
32633;SDS011;19043;51.012;5.648;2023-07-31T10:15:49;5.95;;;3.17;;
32633;SDS011;19043;51.012;5.648;2023-07-31T10:18:14;4.82;;;2.92;;
32633;SDS011;19043;51.012;5.648;2023-07-31T10:20:40;5.90;;;3.17;;
32633;SDS011;19043;51.012;5.648;2023-07-31T10:23:07;4.72;;;3.17;;
32633;SDS011;19043;51.012;5.648;2023-07-31T10:25:33;3.60;;;2.58;;
32633;SDS011;19043;51.012;5.648;2023-07-31T10:27:59;6.00;;;2.90;;
32633;SDS011;19043;51.012;5.648;2023-07-31T10:30:25;3.95;;;2.67;;
32633;SDS011;19043;51.012;5.648;2023-07-31T10:32:51;4.22;;;2.53;;
32633;SDS011;19043;51.012;5.648;2023-07-31T10:35:17;4.78;;;2.97;;
32633;SDS011;19043;51.012;5.648;2023-07-31T10:37:42;4.45;;;2.35;;
32633;SDS011;19043;51.012;5.648;2023-07-31T10:40:16;5.55;;;2.83;;
32633;SDS011;19043;51.012;5.648;2023-07-31T10:42:48;3.80;;;2.67;;
32633;SDS011;19043;51.012;5.648;2023-07-31T10:45:14;4.93;;;3.03;;
32633;SDS011;19043;51.012;5.648;2023-07-31T10:50:20;5.63;;;2.95;;
32633;SDS011;19043;51.012;5.648;2023-07-31T10:52:53;3.50;;;2.75;;
32633;SDS011;19043;51.012;5.648;2023-07-31T10:57:53;5.20;;;3.33;;
32633;SDS011;19043;51.012;5.648;2023-07-31T11:00:20;4.50;;;2.92;;
32633;SDS011;19043;51.012;5.648;2023-07-31T11:03:07;7.50;;;3.42;;
32633;SDS011;19043;51.012;5.648;2023-07-31T11:05:41;4.47;;;3.35;;
32633;SDS011;19043;51.012;5.648;2023-07-31T11:10:44;5.55;;;3.70;;
32633;SDS011;19043;51.012;5.648;2023-07-31T11:13:10;6.13;;;3.80;;
32633;SDS011;19043;51.012;5.648;2023-07-31T11:15:35;6.13;;;4.35;;
32633;SDS011;19043;51.012;5.648;2023-07-31T11:18:01;5.68;;;3.95;;
32633;SDS011;19043;51.012;5.648;2023-07-31T11:20:31;9.07;;;4.85;;
32633;SDS011;19043;51.012;5.648;2023-07-31T11:23:04;6.65;;;4.93;;
32633;SDS011;19043;51.012;5.648;2023-07-31T11:25:30;7.10;;;5.05;;
32633;SDS011;19043;51.012;5.648;2023-07-31T11:28:05;7.97;;;4.93;;
32633;SDS011;19043;51.012;5.648;2023-07-31T11:30:31;5.70;;;4.97;;
32633;SDS011;19043;51.012;5.648;2023-07-31T11:32:56;7.40;;;5.18;;
32633;SDS011;19043;51.012;5.648;2023-07-31T11:35:21;7.20;;;5.72;;
32633;SDS011;19043;51.012;5.648;2023-07-31T11:37:47;7.25;;;5.32;;
32633;SDS011;19043;51.012;5.648;2023-07-31T11:40:13;7.10;;;5.68;;
32633;SDS011;19043;51.012;5.648;2023-07-31T11:42:39;7.53;;;5.60;;
32633;SDS011;19043;51.012;5.648;2023-07-31T11:45:04;13.13;;;6.40;;
32633;SDS011;19043;51.012;5.648;2023-07-31T11:47:32;12.55;;;6.72;;
32633;SDS011;19043;51.012;5.648;2023-07-31T11:49:59;8.10;;;6.32;;
32633;SDS011;19043;51.012;5.648;2023-07-31T11:52:24;9.35;;;6.38;;
32633;SDS011;19043;51.012;5.648;2023-07-31T11:54:50;9.38;;;6.22;;
32633;SDS011;19043;51.012;5.648;2023-07-31T11:57:15;8.55;;;5.60;;
32633;SDS011;19043;51.012;5.648;2023-07-31T11:59:41;7.32;;;5.57;;
32633;SDS011;19043;51.012;5.648;2023-07-31T12:02:06;6.60;;;5.80;;
32633;SDS011;19043;51.012;5.648;2023-07-31T12:04:32;6.97;;;5.55;;
32633;SDS011;19043;51.012;5.648;2023-07-31T12:06:57;7.28;;;5.32;;
32633;SDS011;19043;51.012;5.648;2023-07-31T12:09:25;7.65;;;6.10;;
32633;SDS011;19043;51.012;5.648;2023-07-31T12:11:51;7.60;;;6.20;;
32633;SDS011;19043;51.012;5.648;2023-07-31T12:14:20;7.63;;;5.57;;
32633;SDS011;19043;51.012;5.648;2023-07-31T12:16:46;7.15;;;4.68;;
32633;SDS011;19043;51.012;5.648;2023-07-31T12:19:11;8.57;;;5.50;;
32633;SDS011;19043;51.012;5.648;2023-07-31T12:21:37;9.70;;;6.25;;
32633;SDS011;19043;51.012;5.648;2023-07-31T12:24:02;8.90;;;5.45;;
32633;SDS011;19043;51.012;5.648;2023-07-31T12:26:33;9.27;;;5.22;;
32633;SDS011;19043;51.012;5.648;2023-07-31T12:28:58;7.18;;;4.88;;
32633;SDS011;19043;51.012;5.648;2023-07-31T12:31:24;6.53;;;4.90;;
32633;SDS011;19043;51.012;5.648;2023-07-31T12:33:52;9.55;;;4.53;;
32633;SDS011;19043;51.012;5.648;2023-07-31T12:36:18;8.63;;;5.22;;
32633;SDS011;19043;51.012;5.648;2023-07-31T12:38:45;7.45;;;4.85;;
32633;SDS011;19043;51.012;5.648;2023-07-31T12:41:11;8.70;;;5.15;;
32633;SDS011;19043;51.012;5.648;2023-07-31T12:43:39;6.57;;;4.70;;
32633;SDS011;19043;51.012;5.648;2023-07-31T12:46:04;6.22;;;4.43;;
32633;SDS011;19043;51.012;5.648;2023-07-31T12:48:30;6.32;;;4.10;;
32633;SDS011;19043;51.012;5.648;2023-07-31T12:50:56;8.63;;;5.03;;
32633;SDS011;19043;51.012;5.648;2023-07-31T12:53:21;6.43;;;4.50;;
32633;SDS011;19043;51.012;5.648;2023-07-31T12:55:46;7.03;;;4.22;;
32633;SDS011;19043;51.012;5.648;2023-07-31T12:58:12;7.85;;;4.65;;
32633;SDS011;19043;51.012;5.648;2023-07-31T13:00:37;6.80;;;4.55;;
32633;SDS011;19043;51.012;5.648;2023-07-31T13:03:03;7.10;;;4.50;;
32633;SDS011;19043;51.012;5.648;2023-07-31T13:05:28;6.00;;;4.10;;
32633;SDS011;19043;51.012;5.648;2023-07-31T13:07:53;5.22;;;3.53;;
32633;SDS011;19043;51.012;5.648;2023-07-31T13:10:19;7.93;;;3.65;;
32633;SDS011;19043;51.012;5.648;2023-07-31T13:12:44;5.30;;;3.67;;
32633;SDS011;19043;51.012;5.648;2023-07-31T13:15:10;4.97;;;3.43;;
32633;SDS011;19043;51.012;5.648;2023-07-31T13:17:35;5.22;;;3.55;;
32633;SDS011;19043;51.012;5.648;2023-07-31T13:20:01;7.15;;;4.50;;
32633;SDS011;19043;51.012;5.648;2023-07-31T13:22:26;6.10;;;3.88;;
32633;SDS011;19043;51.012;5.648;2023-07-31T13:24:51;7.15;;;4.15;;
32633;SDS011;19043;51.012;5.648;2023-07-31T13:27:17;7.13;;;3.90;;
32633;SDS011;19043;51.012;5.648;2023-07-31T13:29:44;7.45;;;3.97;;
32633;SDS011;19043;51.012;5.648;2023-07-31T13:32:09;7.75;;;4.82;;
32633;SDS011;19043;51.012;5.648;2023-07-31T13:34:34;8.20;;;4.93;;
32633;SDS011;19043;51.012;5.648;2023-07-31T13:36:59;6.63;;;4.30;;
32633;SDS011;19043;51.012;5.648;2023-07-31T13:39:25;6.63;;;4.27;;
32633;SDS011;19043;51.012;5.648;2023-07-31T13:41:50;6.50;;;4.07;;
32633;SDS011;19043;51.012;5.648;2023-07-31T13:44:15;7.63;;;4.17;;
32633;SDS011;19043;51.012;5.648;2023-07-31T13:46:40;6.57;;;4.40;;
32633;SDS011;19043;51.012;5.648;2023-07-31T13:49:06;6.90;;;4.57;;
32633;SDS011;19043;51.012;5.648;2023-07-31T13:51:31;7.00;;;4.90;;
32633;SDS011;19043;51.012;5.648;2023-07-31T13:53:56;8.40;;;4.85;;
32633;SDS011;19043;51.012;5.648;2023-07-31T13:56:21;6.03;;;5.00;;
32633;SDS011;19043;51.012;5.648;2023-07-31T13:58:47;6.55;;;4.60;;
32633;SDS011;19043;51.012;5.648;2023-07-31T14:01:12;8.00;;;4.67;;
32633;SDS011;19043;51.012;5.648;2023-07-31T14:03:37;8.05;;;4.85;;
32633;SDS011;19043;51.012;5.648;2023-07-31T14:06:02;6.15;;;3.72;;
32633;SDS011;19043;51.012;5.648;2023-07-31T14:08:28;6.72;;;4.95;;
32633;SDS011;19043;51.012;5.648;2023-07-31T14:10:54;6.95;;;4.65;;
32633;SDS011;19043;51.012;5.648;2023-07-31T14:13:19;8.35;;;4.90;;
32633;SDS011;19043;51.012;5.648;2023-07-31T14:15:44;6.93;;;4.65;;
32633;SDS011;19043;51.012;5.648;2023-07-31T14:18:10;5.93;;;4.25;;
32633;SDS011;19043;51.012;5.648;2023-07-31T14:20:35;8.87;;;4.90;;
32633;SDS011;19043;51.012;5.648;2023-07-31T14:23:01;5.93;;;4.18;;
32633;SDS011;19043;51.012;5.648;2023-07-31T14:25:27;5.70;;;3.75;;
32633;SDS011;19043;51.012;5.648;2023-07-31T14:27:52;5.70;;;4.13;;
32633;SDS011;19043;51.012;5.648;2023-07-31T14:30:17;5.50;;;3.85;;
32633;SDS011;19043;51.012;5.648;2023-07-31T14:32:43;5.60;;;3.53;;
32633;SDS011;19043;51.012;5.648;2023-07-31T14:35:08;7.22;;;4.72;;
32633;SDS011;19043;51.012;5.648;2023-07-31T14:37:37;7.72;;;5.10;;
32633;SDS011;19043;51.012;5.648;2023-07-31T14:40:03;8.38;;;4.00;;
32633;SDS011;19043;51.012;5.648;2023-07-31T14:42:28;6.53;;;4.35;;
32633;SDS011;19043;51.012;5.648;2023-07-31T14:44:53;6.20;;;4.77;;